createdAt,value
2023-05-11T00:04:39.823Z,101452.50
2023-05-11T00:09:41.737Z,101445.50
2023-05-11T00:14:43.318Z,101446.53
2023-05-11T00:19:44.848Z,101453.72
2023-05-11T00:24:46.443Z,101453.16
2023-05-11T00:29:47.986Z,101454.38
2023-05-11T00:34:49.511Z,101460.53
2023-05-11T00:39:51.072Z,101464.97
2023-05-11T00:44:52.529Z,101460.69
2023-05-11T00:49:54.884Z,101461.22
2023-05-11T00:54:56.614Z,101465.50
2023-05-11T00:59:58.182Z,101457.47
2023-05-11T01:05:00.588Z,101462.94
2023-05-11T01:10:20.891Z,101458.31
2023-05-11T01:15:40.356Z,101462.78
2023-05-11T01:20:44.791Z,101459.50
2023-05-11T01:26:27.978Z,101453.84
2023-05-11T01:31:32.210Z,101458.66
2023-05-11T01:36:36.133Z,101452.50
2023-05-11T01:41:40.162Z,101458.81
2023-05-11T01:46:41.697Z,101463.06
2023-05-11T01:51:45.429Z,101459.31
2023-05-11T01:56:49.890Z,101463.75
2023-05-11T02:01:51.516Z,101465.31
2023-05-11T02:06:55.180Z,101469.91
2023-05-11T02:11:57.664Z,101465.31
2023-05-11T02:17:00.407Z,101461.69
2023-05-11T02:22:03.178Z,101475.22
2023-05-11T02:27:04.869Z,101482.41
2023-05-11T02:32:13.079Z,101476.88
2023-05-11T02:37:21.196Z,101485.44
2023-05-11T02:42:23.736Z,101486.44
2023-05-11T02:47:30.179Z,101490.19
2023-05-11T02:52:34.645Z,101487.94
2023-05-11T02:57:36.241Z,101490.84
2023-05-11T03:02:37.824Z,101493.59
2023-05-11T03:07:39.520Z,101483.97
2023-05-11T03:12:41.220Z,101478.81
2023-05-11T03:17:43.683Z,101459.16
2023-05-11T03:22:46.768Z,101464.63
2023-05-11T03:27:51.251Z,101454.88
2023-05-11T03:32:52.956Z,101453.31
2023-05-11T03:37:56.526Z,101436.69
2023-05-11T03:43:00.087Z,101442.50
2023-05-11T03:48:03.905Z,101444.13
2023-05-11T03:53:06.079Z,101449.22
2023-05-11T03:58:11.099Z,101439.13
2023-05-11T04:03:12.833Z,101449.88
2023-05-11T04:08:14.717Z,101446.84
2023-05-11T04:13:16.191Z,101451.97
2023-05-11T04:18:17.778Z,101446.84
2023-05-11T04:23:19.309Z,101463.94
2023-05-11T04:28:22.359Z,101455.56
2023-05-11T04:33:24.279Z,101465.31
2023-05-11T04:38:26.402Z,101475.41
2023-05-11T04:43:27.915Z,101473.91
2023-05-11T04:48:29.521Z,101478.72
2023-05-11T04:53:31.063Z,101479.81
2023-05-11T04:58:32.537Z,101478.44
2023-05-11T05:03:34.155Z,101474.00
2023-05-11T05:08:35.720Z,101492.00
2023-05-11T05:13:37.235Z,101499.91
2023-05-11T05:18:38.964Z,101498.75
2023-05-11T05:23:40.549Z,101501.88
2023-05-11T05:28:42.006Z,101509.28
2023-05-11T05:33:43.569Z,101511.91
2023-05-11T05:38:45.177Z,101524.25
2023-05-11T05:43:46.773Z,101528.72
2023-05-11T05:48:48.284Z,101535.59
2023-05-11T05:53:49.818Z,101535.97
2023-05-11T05:58:51.371Z,101525.00
2023-05-11T06:03:53.555Z,101530.91
2023-05-11T06:08:55.288Z,101544.78
2023-05-11T06:13:56.881Z,101541.75
2023-05-11T06:19:00.223Z,101547.56
2023-05-11T06:24:01.847Z,101539.03
2023-05-11T06:29:03.378Z,101532.03
2023-05-11T06:34:04.917Z,101536.88
2023-05-11T06:39:06.909Z,101547.31
2023-05-11T06:44:08.512Z,101536.19
2023-05-11T06:49:10.063Z,101551.94
2023-05-11T06:54:11.724Z,101559.13
2023-05-11T06:59:13.829Z,101552.47
2023-05-11T07:04:15.445Z,101550.09
2023-05-11T07:09:17.071Z,101551.97
2023-05-11T07:14:18.933Z,101550.41
2023-05-11T07:19:20.471Z,101557.47
2023-05-11T07:24:21.973Z,101560.88
2023-05-11T07:29:23.536Z,101556.59
2023-05-11T07:34:25.044Z,101567.41
2023-05-11T07:39:26.728Z,101563.00
2023-05-11T07:44:28.256Z,101572.06
2023-05-11T07:49:39.959Z,101577.06
2023-05-11T07:54:44.896Z,101583.22
2023-05-11T07:59:46.452Z,101580.81
2023-05-11T08:04:48.039Z,101585.09
2023-05-11T08:09:49.685Z,101583.56
2023-05-11T08:14:51.224Z,101591.78
2023-05-11T08:19:52.917Z,101589.22
2023-05-11T08:24:54.459Z,101586.16
2023-05-11T08:29:56.014Z,101592.50
2023-05-11T08:34:57.871Z,101590.75
2023-05-11T08:39:59.628Z,101591.81
2023-05-11T08:45:02.217Z,101586.38
2023-05-11T08:50:04.411Z,101593.91
2023-05-11T08:55:07.107Z,101598.88
2023-05-11T09:00:09.185Z,101611.06
2023-05-11T09:05:11.277Z,101602.59
2023-05-11T09:10:14.008Z,101609.28
2023-05-11T09:15:15.717Z,101608.03
2023-05-11T09:20:27.367Z,101621.94
2023-05-11T09:25:32.320Z,101618.88
2023-05-11T09:30:33.908Z,101615.94
2023-05-11T09:35:35.989Z,101615.94
2023-05-11T09:40:57.710Z,101613.56
2023-05-11T09:46:07.196Z,101615.47
2023-05-11T09:51:09.162Z,101612.91
2023-05-11T09:56:15.538Z,101621.34
2023-05-11T10:01:27.777Z,101618.91
2023-05-11T10:06:46.668Z,101610.97
2023-05-11T10:11:49.323Z,101620.91
2023-05-11T10:16:52.054Z,101619.41
2023-05-11T10:21:55.371Z,101619.00
2023-05-11T10:26:57.474Z,101619.13
2023-05-11T10:32:00.235Z,101630.00
2023-05-11T10:37:02.609Z,101632.84
2023-05-11T10:42:25.586Z,101617.78
2023-05-11T10:47:32.979Z,101618.91
2023-05-11T10:52:55.860Z,101613.13
2023-05-11T10:58:13.197Z,101614.78
2023-05-11T11:03:15.480Z,101614.97
2023-05-11T11:08:16.991Z,101614.97
2023-05-11T11:13:20.606Z,101608.50
2023-05-11T11:18:29.911Z,101607.19
2023-05-11T11:23:49.989Z,101616.72
2023-05-11T11:28:54.278Z,101618.47
2023-05-11T11:34:01.097Z,101616.16
2023-05-11T11:39:03.903Z,101614.56
2023-05-11T11:44:05.506Z,101614.22
2023-05-11T11:49:08.415Z,101612.38
2023-05-11T11:54:10.319Z,101618.78
2023-05-11T11:59:14.005Z,101614.69
2023-05-11T12:04:40.753Z,101630.75
2023-05-11T12:09:46.062Z,101625.59
2023-05-11T12:14:50.723Z,101626.28
2023-05-11T12:19:52.335Z,101610.59
2023-05-11T12:24:59.639Z,101613.41
2023-05-11T12:30:02.063Z,101610.38
2023-05-11T12:35:04.669Z,101614.56
2023-05-11T12:40:10.950Z,101604.56
2023-05-11T12:45:12.633Z,101594.16
2023-05-11T12:50:14.296Z,101608.91
2023-05-11T12:55:27.940Z,101603.09
2023-05-11T13:00:29.458Z,101604.31
2023-05-11T13:05:30.952Z,101608.31
2023-05-11T13:10:32.611Z,101608.13
2023-05-11T13:15:34.533Z,101599.28
2023-05-11T13:20:36.568Z,101605.13
2023-05-11T13:25:49.881Z,101599.91
2023-05-11T13:30:52.639Z,101604.03
2023-05-11T13:35:54.343Z,101599.78
2023-05-11T13:40:55.845Z,101599.00
2023-05-11T13:45:57.343Z,101593.66
2023-05-11T13:50:58.887Z,101595.00
2023-05-11T13:56:01.647Z,101594.81
2023-05-11T14:01:07.672Z,101602.59
2023-05-11T14:06:10.262Z,101592.78
2023-05-11T14:11:11.796Z,101596.97
2023-05-11T14:16:13.767Z,101590.97
2023-05-11T14:21:16.013Z,101594.94
2023-05-11T14:26:17.576Z,101592.19
2023-05-11T14:31:19.129Z,101591.31
2023-05-11T14:36:20.632Z,101593.81
2023-05-11T14:41:22.196Z,101593.94
2023-05-11T14:46:26.674Z,101597.31
2023-05-11T14:51:28.547Z,101588.56
2023-05-11T14:56:30.087Z,101599.59
2023-05-11T15:01:31.587Z,101597.63
2023-05-11T15:06:33.162Z,101597.31
2023-05-11T15:11:37.456Z,101596.84
2023-05-11T15:16:39.004Z,101585.38
2023-05-11T15:21:40.753Z,101590.69
2023-05-11T15:26:43.367Z,101598.09
2023-05-11T15:31:44.915Z,101607.03
2023-05-11T15:36:48.500Z,101601.91
2023-05-11T15:41:50.068Z,101597.34
2023-05-11T15:46:51.613Z,101606.88
2023-05-11T15:51:53.223Z,101612.22
2023-05-11T15:56:54.735Z,101609.34
2023-05-11T16:01:56.299Z,101612.59
2023-05-11T16:06:58.962Z,101608.69
2023-05-11T16:12:00.971Z,101604.53
2023-05-11T16:17:02.844Z,101606.31
2023-05-11T16:22:04.483Z,101609.19
2023-05-11T16:27:05.993Z,101611.06
2023-05-11T16:32:07.580Z,101610.03
2023-05-11T16:37:10.235Z,101606.22
2023-05-11T16:42:12.041Z,101612.66
2023-05-11T16:47:13.571Z,101604.88
2023-05-11T16:52:15.102Z,101617.50
2023-05-11T16:57:16.644Z,101615.00
2023-05-11T17:02:19.740Z,101624.78
2023-05-11T17:07:21.341Z,101615.56
2023-05-11T17:12:23.509Z,101623.19
2023-05-11T17:17:25.165Z,101638.81
2023-05-11T17:22:28.431Z,101627.81
2023-05-11T17:27:31.517Z,101637.84
2023-05-11T17:32:33.509Z,101646.22
2023-05-11T17:37:35.240Z,101640.78
2023-05-11T17:42:36.772Z,101643.03
2023-05-11T17:47:38.408Z,101646.56
2023-05-11T17:52:39.920Z,101662.69
2023-05-11T17:57:41.758Z,101652.78
2023-05-11T18:02:46.860Z,101652.47
2023-05-11T18:07:49.447Z,101656.47
2023-05-11T18:12:50.990Z,101668.00
2023-05-11T18:17:54.108Z,101661.00
2023-05-11T18:22:56.571Z,101676.63
2023-05-11T18:28:02.130Z,101671.31
2023-05-11T18:33:03.693Z,101684.03
2023-05-11T18:38:05.339Z,101690.78
2023-05-11T18:43:06.814Z,101680.69
2023-05-11T18:48:08.447Z,101683.59
2023-05-11T18:53:10.082Z,101694.59
2023-05-11T18:58:12.705Z,101699.91
2023-05-11T19:03:15.142Z,101711.25
2023-05-11T19:08:16.798Z,101716.22
2023-05-11T19:13:18.952Z,101718.44
2023-05-11T19:18:20.527Z,101731.63
2023-05-11T19:23:22.185Z,101731.94
2023-05-11T19:28:23.793Z,101738.25
2023-05-11T19:33:25.274Z,101745.75
2023-05-11T19:38:26.921Z,101755.69
2023-05-11T19:43:28.437Z,101755.13
2023-05-11T19:48:30.789Z,101764.00
2023-05-11T19:53:32.510Z,101766.59
2023-05-11T19:58:34.246Z,101771.50
2023-05-11T20:03:35.913Z,101778.47
2023-05-11T20:08:37.688Z,101786.97
2023-05-11T20:13:39.174Z,101787.31
2023-05-11T20:18:40.750Z,101795.91
2023-05-11T20:23:42.395Z,101796.59
2023-05-11T20:28:43.922Z,101802.34
2023-05-11T20:38:52.843Z,101801.03
2023-05-11T20:43:54.832Z,101800.50
2023-05-11T20:48:56.978Z,101802.56
2023-05-11T20:53:58.518Z,101808.88
2023-05-11T20:59:00.117Z,101806.41
2023-05-11T21:04:01.659Z,101795.59
2023-05-11T21:09:04.411Z,101796.63
2023-05-11T21:14:05.959Z,101799.28
2023-05-11T21:19:07.910Z,101803.22
2023-05-11T21:24:09.491Z,101803.31
2023-05-11T21:29:12.999Z,101807.09
2023-05-11T21:34:14.948Z,101805.41
2023-05-11T21:39:16.480Z,101805.41
2023-05-11T21:44:17.999Z,101811.13
2023-05-11T21:49:19.553Z,101817.63
2023-05-11T21:54:22.406Z,101813.53
2023-05-11T21:59:26.708Z,101806.81
2023-05-11T22:04:28.434Z,101813.66
2023-05-11T22:09:31.519Z,101816.56
2023-05-11T22:14:33.045Z,101812.41
2023-05-11T22:19:34.561Z,101817.03
2023-05-11T22:24:36.096Z,101814.19
2023-05-11T22:29:37.616Z,101810.53
2023-05-11T22:34:39.133Z,101815.84
2023-05-11T22:39:40.620Z,101815.28
2023-05-11T22:44:42.293Z,101814.41
2023-05-11T22:49:43.836Z,101806.97
2023-05-11T22:54:45.366Z,101812.78
2023-05-11T22:59:46.844Z,101806.13
2023-05-11T23:04:52.208Z,101810.25
2023-05-11T23:09:53.738Z,101804.09
2023-05-11T23:14:55.281Z,101812.03
2023-05-11T23:19:56.909Z,101805.03
2023-05-11T23:25:00.370Z,101802.97
2023-05-11T23:30:01.852Z,101804.84
2023-05-11T23:35:03.421Z,101805.03
2023-05-11T23:40:06.227Z,101803.31
2023-05-11T23:45:08.674Z,101802.97
2023-05-11T23:50:11.326Z,101802.28
2023-05-11T23:55:12.894Z,101807.75
